sensor_id;sensor_type;location;lat;lon;timestamp;P1;durP1;ratioP1;P2;durP2;ratioP2
48935;SDS011;34745;52.276;10.528;2023-05-23T00:01:46;15.40;;;12.85;;
48935;SDS011;34745;52.276;10.528;2023-05-23T00:04:13;13.88;;;12.48;;
48935;SDS011;34745;52.276;10.528;2023-05-23T00:06:44;14.15;;;12.65;;
48935;SDS011;34745;52.276;10.528;2023-05-23T00:09:12;17.88;;;13.20;;
48935;SDS011;34745;52.276;10.528;2023-05-23T00:11:40;19.65;;;13.52;;
48935;SDS011;34745;52.276;10.528;2023-05-23T00:14:11;15.55;;;13.85;;
48935;SDS011;34745;52.276;10.528;2023-05-23T00:16:40;18.02;;;14.50;;
48935;SDS011;34745;52.276;10.528;2023-05-23T00:19:09;16.13;;;14.40;;
48935;SDS011;34745;52.276;10.528;2023-05-23T00:21:37;17.65;;;14.70;;
48935;SDS011;34745;52.276;10.528;2023-05-23T00:24:04;21.40;;;17.50;;
48935;SDS011;34745;52.276;10.528;2023-05-23T00:26:31;21.17;;;18.13;;
48935;SDS011;34745;52.276;10.528;2023-05-23T00:29:00;20.38;;;17.98;;
48935;SDS011;34745;52.276;10.528;2023-05-23T00:31:27;20.87;;;18.23;;
48935;SDS011;34745;52.276;10.528;2023-05-23T00:33:56;23.10;;;18.70;;
48935;SDS011;34745;52.276;10.528;2023-05-23T00:36:22;23.55;;;19.30;;
48935;SDS011;34745;52.276;10.528;2023-05-23T00:38:50;23.13;;;18.60;;
48935;SDS011;34745;52.276;10.528;2023-05-23T00:41:18;20.93;;;18.67;;
48935;SDS011;34745;52.276;10.528;2023-05-23T00:43:46;22.30;;;19.90;;
48935;SDS011;34745;52.276;10.528;2023-05-23T00:46:14;22.37;;;19.20;;
48935;SDS011;34745;52.276;10.528;2023-05-23T00:48:42;21.37;;;19.07;;
48935;SDS011;34745;52.276;10.528;2023-05-23T00:51:10;20.83;;;18.60;;
48935;SDS011;34745;52.276;10.528;2023-05-23T00:53:37;21.80;;;19.43;;
48935;SDS011;34745;52.276;10.528;2023-05-23T00:56:04;22.00;;;18.50;;
48935;SDS011;34745;52.276;10.528;2023-05-23T00:58:32;19.33;;;17.30;;
48935;SDS011;34745;52.276;10.528;2023-05-23T01:00:58;19.97;;;17.83;;
48935;SDS011;34745;52.276;10.528;2023-05-23T01:03:26;27.20;;;19.20;;
48935;SDS011;34745;52.276;10.528;2023-05-23T01:05:54;22.63;;;20.17;;
48935;SDS011;34745;52.276;10.528;2023-05-23T01:08:23;26.93;;;21.13;;
48935;SDS011;34745;52.276;10.528;2023-05-23T01:10:50;27.33;;;22.30;;
48935;SDS011;34745;52.276;10.528;2023-05-23T01:13:19;29.83;;;24.83;;
48935;SDS011;34745;52.276;10.528;2023-05-23T01:15:54;34.87;;;28.17;;
48935;SDS011;34745;52.276;10.528;2023-05-23T01:18:28;35.83;;;27.63;;
48935;SDS011;34745;52.276;10.528;2023-05-23T01:21:05;33.90;;;28.23;;
48935;SDS011;34745;52.276;10.528;2023-05-23T01:23:39;34.30;;;28.93;;
48935;SDS011;34745;52.276;10.528;2023-05-23T01:26:32;36.40;;;28.87;;
48935;SDS011;34745;52.276;10.528;2023-05-23T01:29:13;34.03;;;28.17;;
48935;SDS011;34745;52.276;10.528;2023-05-23T01:31:48;36.83;;;30.03;;
48935;SDS011;34745;52.276;10.528;2023-05-23T01:34:18;34.03;;;29.40;;
48935;SDS011;34745;52.276;10.528;2023-05-23T01:36:48;34.13;;;29.27;;
48935;SDS011;34745;52.276;10.528;2023-05-23T01:39:16;36.00;;;29.23;;
48935;SDS011;34745;52.276;10.528;2023-05-23T01:41:43;35.97;;;30.13;;
48935;SDS011;34745;52.276;10.528;2023-05-23T01:44:10;33.53;;;28.90;;
48935;SDS011;34745;52.276;10.528;2023-05-23T01:46:39;34.13;;;30.07;;
48935;SDS011;34745;52.276;10.528;2023-05-23T01:49:07;33.47;;;29.77;;
48935;SDS011;34745;52.276;10.528;2023-05-23T01:51:36;34.30;;;30.03;;
48935;SDS011;34745;52.276;10.528;2023-05-23T01:54:04;33.23;;;28.03;;
48935;SDS011;34745;52.276;10.528;2023-05-23T01:56:32;31.67;;;26.90;;
48935;SDS011;34745;52.276;10.528;2023-05-23T01:59:00;31.40;;;28.00;;
48935;SDS011;34745;52.276;10.528;2023-05-23T02:01:29;31.33;;;27.93;;
48935;SDS011;34745;52.276;10.528;2023-05-23T02:03:57;30.60;;;27.13;;
48935;SDS011;34745;52.276;10.528;2023-05-23T02:06:24;33.40;;;27.57;;
48935;SDS011;34745;52.276;10.528;2023-05-23T02:08:51;30.67;;;26.00;;
48935;SDS011;34745;52.276;10.528;2023-05-23T02:11:18;29.87;;;25.77;;
48935;SDS011;34745;52.276;10.528;2023-05-23T02:13:45;28.63;;;25.00;;
48935;SDS011;34745;52.276;10.528;2023-05-23T02:16:12;28.40;;;24.80;;
48935;SDS011;34745;52.276;10.528;2023-05-23T02:18:40;30.27;;;25.40;;
48935;SDS011;34745;52.276;10.528;2023-05-23T02:21:07;31.53;;;25.53;;
48935;SDS011;34745;52.276;10.528;2023-05-23T02:23:34;28.63;;;25.53;;
48935;SDS011;34745;52.276;10.528;2023-05-23T02:26:01;31.03;;;25.23;;
48935;SDS011;34745;52.276;10.528;2023-05-23T02:28:29;33.00;;;26.63;;
48935;SDS011;34745;52.276;10.528;2023-05-23T02:30:56;34.23;;;27.27;;
48935;SDS011;34745;52.276;10.528;2023-05-23T02:33:23;31.50;;;26.90;;
48935;SDS011;34745;52.276;10.528;2023-05-23T02:35:51;36.17;;;31.00;;
48935;SDS011;34745;52.276;10.528;2023-05-23T02:38:20;44.93;;;36.20;;
48935;SDS011;34745;52.276;10.528;2023-05-23T02:40:47;54.07;;;37.47;;
48935;SDS011;34745;52.276;10.528;2023-05-23T02:43:16;70.37;;;46.10;;
48935;SDS011;34745;52.276;10.528;2023-05-23T02:45:43;77.90;;;50.27;;
48935;SDS011;34745;52.276;10.528;2023-05-23T02:48:11;91.60;;;57.27;;
48935;SDS011;34745;52.276;10.528;2023-05-23T02:50:38;92.47;;;55.07;;
48935;SDS011;34745;52.276;10.528;2023-05-23T02:53:06;104.77;;;59.53;;
48935;SDS011;34745;52.276;10.528;2023-05-23T02:55:33;96.53;;;59.23;;
48935;SDS011;34745;52.276;10.528;2023-05-23T02:58:00;110.63;;;62.00;;
48935;SDS011;34745;52.276;10.528;2023-05-23T03:00:31;108.63;;;65.33;;
48935;SDS011;34745;52.276;10.528;2023-05-23T03:02:58;101.70;;;63.37;;
48935;SDS011;34745;52.276;10.528;2023-05-23T03:05:25;100.50;;;59.40;;
48935;SDS011;34745;52.276;10.528;2023-05-23T03:07:52;112.83;;;64.93;;
48935;SDS011;34745;52.276;10.528;2023-05-23T03:10:21;113.33;;;70.23;;
48935;SDS011;34745;52.276;10.528;2023-05-23T03:12:48;104.87;;;64.03;;
48935;SDS011;34745;52.276;10.528;2023-05-23T03:15:15;100.00;;;59.10;;
48935;SDS011;34745;52.276;10.528;2023-05-23T03:17:43;92.07;;;56.83;;
48935;SDS011;34745;52.276;10.528;2023-05-23T03:20:10;99.67;;;57.00;;
48935;SDS011;34745;52.276;10.528;2023-05-23T03:22:37;89.20;;;53.37;;
48935;SDS011;34745;52.276;10.528;2023-05-23T03:25:05;79.80;;;49.30;;
48935;SDS011;34745;52.276;10.528;2023-05-23T03:27:34;66.80;;;45.83;;
48935;SDS011;34745;52.276;10.528;2023-05-23T03:30:02;57.67;;;40.43;;
48935;SDS011;34745;52.276;10.528;2023-05-23T03:32:30;53.90;;;39.70;;
48935;SDS011;34745;52.276;10.528;2023-05-23T03:34:57;58.13;;;37.03;;
48935;SDS011;34745;52.276;10.528;2023-05-23T03:37:24;57.47;;;35.60;;
48935;SDS011;34745;52.276;10.528;2023-05-23T03:39:51;43.77;;;31.50;;
48935;SDS011;34745;52.276;10.528;2023-05-23T03:42:19;46.00;;;31.63;;
48935;SDS011;34745;52.276;10.528;2023-05-23T03:44:47;43.50;;;30.50;;
48935;SDS011;34745;52.276;10.528;2023-05-23T03:47:15;41.30;;;29.13;;
48935;SDS011;34745;52.276;10.528;2023-05-23T03:49:42;39.67;;;28.17;;
48935;SDS011;34745;52.276;10.528;2023-05-23T03:52:10;34.30;;;27.97;;
48935;SDS011;34745;52.276;10.528;2023-05-23T03:54:37;38.63;;;27.43;;
48935;SDS011;34745;52.276;10.528;2023-05-23T03:57:05;35.50;;;27.77;;
48935;SDS011;34745;52.276;10.528;2023-05-23T03:59:32;34.33;;;26.90;;
48935;SDS011;34745;52.276;10.528;2023-05-23T04:02:01;32.97;;;25.40;;
48935;SDS011;34745;52.276;10.528;2023-05-23T04:04:28;31.23;;;26.23;;
48935;SDS011;34745;52.276;10.528;2023-05-23T04:06:56;29.73;;;25.53;;
48935;SDS011;34745;52.276;10.528;2023-05-23T04:09:24;35.80;;;26.27;;
48935;SDS011;34745;52.276;10.528;2023-05-23T04:11:51;30.73;;;25.03;;
48935;SDS011;34745;52.276;10.528;2023-05-23T04:14:18;29.83;;;24.13;;
48935;SDS011;34745;52.276;10.528;2023-05-23T04:16:48;28.60;;;22.93;;
48935;SDS011;34745;52.276;10.528;2023-05-23T04:19:16;28.23;;;22.63;;
48935;SDS011;34745;52.276;10.528;2023-05-23T04:21:43;30.57;;;23.00;;
48935;SDS011;34745;52.276;10.528;2023-05-23T04:24:10;29.77;;;24.40;;
48935;SDS011;34745;52.276;10.528;2023-05-23T04:26:37;31.90;;;24.20;;
48935;SDS011;34745;52.276;10.528;2023-05-23T04:29:04;28.57;;;23.40;;
48935;SDS011;34745;52.276;10.528;2023-05-23T04:31:31;31.47;;;23.83;;
48935;SDS011;34745;52.276;10.528;2023-05-23T04:34:01;29.37;;;23.20;;
48935;SDS011;34745;52.276;10.528;2023-05-23T04:36:30;29.67;;;21.90;;
48935;SDS011;34745;52.276;10.528;2023-05-23T04:38:57;31.57;;;23.20;;
48935;SDS011;34745;52.276;10.528;2023-05-23T04:41:24;25.97;;;21.53;;
48935;SDS011;34745;52.276;10.528;2023-05-23T04:43:51;25.70;;;21.70;;
48935;SDS011;34745;52.276;10.528;2023-05-23T04:46:20;26.30;;;20.03;;
48935;SDS011;34745;52.276;10.528;2023-05-23T04:48:51;27.43;;;19.40;;
48935;SDS011;34745;52.276;10.528;2023-05-23T04:51:19;26.07;;;19.23;;
48935;SDS011;34745;52.276;10.528;2023-05-23T04:53:48;23.67;;;18.77;;
48935;SDS011;34745;52.276;10.528;2023-05-23T04:56:16;23.23;;;19.40;;
48935;SDS011;34745;52.276;10.528;2023-05-23T04:58:47;30.13;;;19.23;;
48935;SDS011;34745;52.276;10.528;2023-05-23T05:01:14;24.67;;;19.47;;
48935;SDS011;34745;52.276;10.528;2023-05-23T05:03:41;29.03;;;19.53;;
48935;SDS011;34745;52.276;10.528;2023-05-23T05:06:08;33.80;;;20.70;;
48935;SDS011;34745;52.276;10.528;2023-05-23T05:08:36;28.03;;;21.97;;
48935;SDS011;34745;52.276;10.528;2023-05-23T05:11:04;26.87;;;20.57;;
48935;SDS011;34745;52.276;10.528;2023-05-23T05:13:31;26.70;;;21.10;;
48935;SDS011;34745;52.276;10.528;2023-05-23T05:15:58;28.50;;;19.67;;
48935;SDS011;34745;52.276;10.528;2023-05-23T05:18:25;26.80;;;21.50;;
48935;SDS011;34745;52.276;10.528;2023-05-23T05:20:52;28.37;;;21.00;;
48935;SDS011;34745;52.276;10.528;2023-05-23T05:23:20;25.90;;;21.20;;
48935;SDS011;34745;52.276;10.528;2023-05-23T05:25:51;39.23;;;21.87;;
48935;SDS011;34745;52.276;10.528;2023-05-23T05:28:19;26.90;;;21.00;;
48935;SDS011;34745;52.276;10.528;2023-05-23T05:30:47;27.43;;;20.50;;
48935;SDS011;34745;52.276;10.528;2023-05-23T05:33:19;25.97;;;19.50;;
48935;SDS011;34745;52.276;10.528;2023-05-23T05:35:49;26.53;;;18.07;;
48935;SDS011;34745;52.276;10.528;2023-05-23T05:38:16;23.97;;;18.10;;
48935;SDS011;34745;52.276;10.528;2023-05-23T05:40:43;20.67;;;18.07;;
48935;SDS011;34745;52.276;10.528;2023-05-23T05:43:10;22.50;;;17.57;;
48935;SDS011;34745;52.276;10.528;2023-05-23T05:45:39;22.97;;;16.53;;
48935;SDS011;34745;52.276;10.528;2023-05-23T05:48:06;23.23;;;16.70;;
48935;SDS011;34745;52.276;10.528;2023-05-23T05:50:33;21.17;;;15.73;;
48935;SDS011;34745;52.276;10.528;2023-05-23T05:53:00;19.87;;;16.37;;
48935;SDS011;34745;52.276;10.528;2023-05-23T05:55:27;21.93;;;15.13;;
48935;SDS011;34745;52.276;10.528;2023-05-23T05:57:55;19.43;;;16.47;;
48935;SDS011;34745;52.276;10.528;2023-05-23T06:00:22;20.80;;;14.40;;
48935;SDS011;34745;52.276;10.528;2023-05-23T06:02:51;17.43;;;14.63;;
48935;SDS011;34745;52.276;10.528;2023-05-23T06:05:20;22.13;;;14.50;;
48935;SDS011;34745;52.276;10.528;2023-05-23T06:07:47;18.03;;;13.63;;
48935;SDS011;34745;52.276;10.528;2023-05-23T06:10:17;19.57;;;13.73;;
48935;SDS011;34745;52.276;10.528;2023-05-23T06:12:45;19.10;;;13.77;;
48935;SDS011;34745;52.276;10.528;2023-05-23T06:15:12;19.00;;;13.93;;
48935;SDS011;34745;52.276;10.528;2023-05-23T06:17:40;17.50;;;13.70;;
48935;SDS011;34745;52.276;10.528;2023-05-23T06:20:09;20.47;;;14.50;;
48935;SDS011;34745;52.276;10.528;2023-05-23T06:22:37;16.00;;;12.90;;
48935;SDS011;34745;52.276;10.528;2023-05-23T06:25:04;16.63;;;13.17;;
48935;SDS011;34745;52.276;10.528;2023-05-23T06:27:33;18.20;;;13.27;;
48935;SDS011;34745;52.276;10.528;2023-05-23T06:29:59;20.03;;;13.50;;
48935;SDS011;34745;52.276;10.528;2023-05-23T06:32:28;17.87;;;13.80;;
48935;SDS011;34745;52.276;10.528;2023-05-23T06:34:55;24.70;;;14.27;;
48935;SDS011;34745;52.276;10.528;2023-05-23T06:37:23;19.07;;;13.13;;
48935;SDS011;34745;52.276;10.528;2023-05-23T06:39:50;14.03;;;10.93;;
48935;SDS011;34745;52.276;10.528;2023-05-23T06:42:17;16.37;;;12.70;;
48935;SDS011;34745;52.276;10.528;2023-05-23T06:44:44;21.53;;;12.90;;
48935;SDS011;34745;52.276;10.528;2023-05-23T06:47:11;18.30;;;12.70;;
48935;SDS011;34745;52.276;10.528;2023-05-23T06:49:38;17.93;;;12.73;;
48935;SDS011;34745;52.276;10.528;2023-05-23T06:52:05;17.87;;;12.50;;
48935;SDS011;34745;52.276;10.528;2023-05-23T06:54:33;16.67;;;11.57;;
48935;SDS011;34745;52.276;10.528;2023-05-23T06:57:00;15.37;;;11.77;;
48935;SDS011;34745;52.276;10.528;2023-05-23T06:59:27;15.17;;;11.63;;
48935;SDS011;34745;52.276;10.528;2023-05-23T07:01:54;13.80;;;10.80;;
48935;SDS011;34745;52.276;10.528;2023-05-23T07:04:21;16.40;;;10.10;;
48935;SDS011;34745;52.276;10.528;2023-05-23T07:06:48;15.07;;;11.07;;
48935;SDS011;34745;52.276;10.528;2023-05-23T07:09:15;14.60;;;11.20;;
48935;SDS011;34745;52.276;10.528;2023-05-23T07:11:43;12.87;;;10.70;;
48935;SDS011;34745;52.276;10.528;2023-05-23T07:14:10;11.70;;;10.40;;
48935;SDS011;34745;52.276;10.528;2023-05-23T07:16:37;16.70;;;10.73;;
48935;SDS011;34745;52.276;10.528;2023-05-23T07:19:04;13.13;;;10.97;;
48935;SDS011;34745;52.276;10.528;2023-05-23T07:21:31;15.93;;;10.17;;
48935;SDS011;34745;52.276;10.528;2023-05-23T07:23:58;12.30;;;10.90;;
48935;SDS011;34745;52.276;10.528;2023-05-23T07:26:28;14.37;;;10.97;;
48935;SDS011;34745;52.276;10.528;2023-05-23T07:28:56;12.73;;;10.27;;
48935;SDS011;34745;52.276;10.528;2023-05-23T07:31:24;10.77;;;9.47;;
48935;SDS011;34745;52.276;10.528;2023-05-23T07:33:51;11.53;;;9.57;;
48935;SDS011;34745;52.276;10.528;2023-05-23T07:36:21;10.30;;;8.97;;
48935;SDS011;34745;52.276;10.528;2023-05-23T07:38:48;12.93;;;9.40;;
48935;SDS011;34745;52.276;10.528;2023-05-23T07:41:15;10.50;;;8.67;;
48935;SDS011;34745;52.276;10.528;2023-05-23T07:43:42;15.67;;;9.83;;
48935;SDS011;34745;52.276;10.528;2023-05-23T07:46:11;17.37;;;10.13;;
48935;SDS011;34745;52.276;10.528;2023-05-23T07:48:38;14.30;;;8.97;;
48935;SDS011;34745;52.276;10.528;2023-05-23T07:51:05;9.80;;;8.77;;
48935;SDS011;34745;52.276;10.528;2023-05-23T07:53:32;9.83;;;8.83;;
48935;SDS011;34745;52.276;10.528;2023-05-23T07:56:00;11.93;;;8.33;;
48935;SDS011;34745;52.276;10.528;2023-05-23T07:58:27;9.53;;;8.30;;
48935;SDS011;34745;52.276;10.528;2023-05-23T08:00:54;9.83;;;7.80;;
48935;SDS011;34745;52.276;10.528;2023-05-23T08:03:22;8.80;;;7.90;;
48935;SDS011;34745;52.276;10.528;2023-05-23T08:05:50;11.90;;;8.13;;
48935;SDS011;34745;52.276;10.528;2023-05-23T08:08:17;13.03;;;8.10;;
48935;SDS011;34745;52.276;10.528;2023-05-23T08:10:44;11.40;;;6.83;;
48935;SDS011;34745;52.276;10.528;2023-05-23T08:13:11;20.97;;;8.67;;
48935;SDS011;34745;52.276;10.528;2023-05-23T08:15:38;23.27;;;8.53;;
48935;SDS011;34745;52.276;10.528;2023-05-23T08:18:05;7.77;;;6.23;;
48935;SDS011;34745;52.276;10.528;2023-05-23T08:20:34;10.00;;;5.70;;
48935;SDS011;34745;52.276;10.528;2023-05-23T08:23:01;6.10;;;5.60;;
48935;SDS011;34745;52.276;10.528;2023-05-23T08:25:28;9.90;;;5.27;;
48935;SDS011;34745;52.276;10.528;2023-05-23T08:27:56;8.37;;;5.97;;
48935;SDS011;34745;52.276;10.528;2023-05-23T08:30:24;5.60;;;5.07;;
48935;SDS011;34745;52.276;10.528;2023-05-23T08:32:51;5.43;;;5.00;;
48935;SDS011;34745;52.276;10.528;2023-05-23T08:35:19;19.03;;;5.93;;
48935;SDS011;34745;52.276;10.528;2023-05-23T08:37:48;11.90;;;7.27;;
48935;SDS011;34745;52.276;10.528;2023-05-23T08:40:17;10.07;;;5.60;;
48935;SDS011;34745;52.276;10.528;2023-05-23T08:42:46;6.73;;;5.57;;
48935;SDS011;34745;52.276;10.528;2023-05-23T08:45:14;6.60;;;5.90;;
48935;SDS011;34745;52.276;10.528;2023-05-23T08:47:42;6.80;;;6.10;;
48935;SDS011;34745;52.276;10.528;2023-05-23T08:50:11;7.27;;;6.33;;
48935;SDS011;34745;52.276;10.528;2023-05-23T08:52:41;8.67;;;6.77;;
48935;SDS011;34745;52.276;10.528;2023-05-23T08:55:11;6.43;;;5.80;;
48935;SDS011;34745;52.276;10.528;2023-05-23T08:57:38;7.67;;;6.37;;
48935;SDS011;34745;52.276;10.528;2023-05-23T09:00:09;9.17;;;7.23;;
48935;SDS011;34745;52.276;10.528;2023-05-23T09:02:41;9.13;;;7.00;;
48935;SDS011;34745;52.276;10.528;2023-05-23T09:05:09;11.87;;;7.70;;
48935;SDS011;34745;52.276;10.528;2023-05-23T09:07:37;9.07;;;8.17;;
48935;SDS011;34745;52.276;10.528;2023-05-23T09:10:05;10.93;;;7.60;;
48935;SDS011;34745;52.276;10.528;2023-05-23T09:12:35;11.07;;;8.63;;
48935;SDS011;34745;52.276;10.528;2023-05-23T09:15:03;12.10;;;9.73;;
48935;SDS011;34745;52.276;10.528;2023-05-23T09:17:31;12.83;;;9.17;;
48935;SDS011;34745;52.276;10.528;2023-05-23T09:20:01;13.73;;;9.70;;
48935;SDS011;34745;52.276;10.528;2023-05-23T09:22:30;14.53;;;10.03;;
48935;SDS011;34745;52.276;10.528;2023-05-23T09:24:57;19.57;;;10.17;;
48935;SDS011;34745;52.276;10.528;2023-05-23T09:27:25;12.27;;;10.03;;
48935;SDS011;34745;52.276;10.528;2023-05-23T09:29:54;13.30;;;9.53;;
48935;SDS011;34745;52.276;10.528;2023-05-23T09:32:22;14.03;;;10.00;;
48935;SDS011;34745;52.276;10.528;2023-05-23T09:34:54;13.13;;;9.50;;
48935;SDS011;34745;52.276;10.528;2023-05-23T09:37:23;16.33;;;9.63;;
48935;SDS011;34745;52.276;10.528;2023-05-23T09:39:55;10.30;;;9.17;;
48935;SDS011;34745;52.276;10.528;2023-05-23T09:42:22;16.93;;;9.17;;
48935;SDS011;34745;52.276;10.528;2023-05-23T09:44:49;24.30;;;8.40;;
48935;SDS011;34745;52.276;10.528;2023-05-23T09:47:17;16.00;;;8.20;;
48935;SDS011;34745;52.276;10.528;2023-05-23T09:49:45;8.60;;;7.23;;
48935;SDS011;34745;52.276;10.528;2023-05-23T09:52:13;15.03;;;8.53;;
48935;SDS011;34745;52.276;10.528;2023-05-23T09:54:42;8.80;;;7.57;;
48935;SDS011;34745;52.276;10.528;2023-05-23T09:57:09;10.90;;;7.63;;
48935;SDS011;34745;52.276;10.528;2023-05-23T09:59:37;10.27;;;8.80;;
48935;SDS011;34745;52.276;10.528;2023-05-23T10:02:06;12.80;;;9.80;;
48935;SDS011;34745;52.276;10.528;2023-05-23T10:04:38;13.43;;;9.80;;
48935;SDS011;34745;52.276;10.528;2023-05-23T10:07:09;16.50;;;11.43;;
48935;SDS011;34745;52.276;10.528;2023-05-23T10:09:41;15.53;;;10.87;;
48935;SDS011;34745;52.276;10.528;2023-05-23T10:15:14;12.30;;;9.67;;
48935;SDS011;34745;52.276;10.528;2023-05-23T10:17:49;13.43;;;10.13;;
48935;SDS011;34745;52.276;10.528;2023-05-23T10:20:30;13.07;;;10.20;;
48935;SDS011;34745;52.276;10.528;2023-05-23T10:22:58;14.23;;;9.30;;
48935;SDS011;34745;52.276;10.528;2023-05-23T10:25:27;21.70;;;10.10;;
48935;SDS011;34745;52.276;10.528;2023-05-23T10:27:55;13.77;;;9.10;;
48935;SDS011;34745;52.276;10.528;2023-05-23T10:30:28;16.13;;;10.47;;
48935;SDS011;34745;52.276;10.528;2023-05-23T10:32:55;14.33;;;10.13;;
48935;SDS011;34745;52.276;10.528;2023-05-23T10:35:27;17.27;;;10.53;;
48935;SDS011;34745;52.276;10.528;2023-05-23T10:38:06;18.73;;;10.63;;
48935;SDS011;34745;52.276;10.528;2023-05-23T10:40:42;27.33;;;12.40;;
48935;SDS011;34745;52.276;10.528;2023-05-23T10:43:17;21.43;;;12.67;;
48935;SDS011;34745;52.276;10.528;2023-05-23T10:45:50;23.60;;;13.07;;
48935;SDS011;34745;52.276;10.528;2023-05-23T10:48:21;21.73;;;12.53;;
48935;SDS011;34745;52.276;10.528;2023-05-23T10:51:02;25.53;;;12.07;;
48935;SDS011;34745;52.276;10.528;2023-05-23T10:53:31;19.27;;;11.73;;
48935;SDS011;34745;52.276;10.528;2023-05-23T10:56:03;26.30;;;12.53;;
48935;SDS011;34745;52.276;10.528;2023-05-23T10:58:31;22.80;;;11.03;;
48935;SDS011;34745;52.276;10.528;2023-05-23T11:01:01;25.13;;;11.00;;
48935;SDS011;34745;52.276;10.528;2023-05-23T11:03:31;22.90;;;10.97;;
48935;SDS011;34745;52.276;10.528;2023-05-23T11:06:04;15.30;;;9.30;;
48935;SDS011;34745;52.276;10.528;2023-05-23T11:08:35;23.33;;;9.43;;
48935;SDS011;34745;52.276;10.528;2023-05-23T11:11:13;20.93;;;9.23;;
48935;SDS011;34745;52.276;10.528;2023-05-23T11:13:54;14.43;;;8.17;;
48935;SDS011;34745;52.276;10.528;2023-05-23T11:16:22;19.17;;;8.00;;
48935;SDS011;34745;52.276;10.528;2023-05-23T11:18:50;17.40;;;8.23;;
48935;SDS011;34745;52.276;10.528;2023-05-23T11:21:19;15.17;;;8.10;;
48935;SDS011;34745;52.276;10.528;2023-05-23T11:23:47;13.43;;;8.23;;
48935;SDS011;34745;52.276;10.528;2023-05-23T11:26:29;17.10;;;8.70;;
48935;SDS011;34745;52.276;10.528;2023-05-23T11:28:57;12.83;;;8.13;;
48935;SDS011;34745;52.276;10.528;2023-05-23T11:31:25;13.87;;;8.27;;
48935;SDS011;34745;52.276;10.528;2023-05-23T11:33:53;13.23;;;7.63;;
48935;SDS011;34745;52.276;10.528;2023-05-23T11:36:21;16.53;;;7.97;;
48935;SDS011;34745;52.276;10.528;2023-05-23T11:38:49;16.37;;;8.03;;
48935;SDS011;34745;52.276;10.528;2023-05-23T11:41:17;15.73;;;8.20;;
48935;SDS011;34745;52.276;10.528;2023-05-23T11:43:48;15.90;;;7.80;;
48935;SDS011;34745;52.276;10.528;2023-05-23T11:46:16;17.13;;;8.27;;
48935;SDS011;34745;52.276;10.528;2023-05-23T11:48:43;15.87;;;7.43;;
48935;SDS011;34745;52.276;10.528;2023-05-23T11:51:11;14.73;;;7.13;;
48935;SDS011;34745;52.276;10.528;2023-05-23T11:53:40;17.60;;;7.17;;
48935;SDS011;34745;52.276;10.528;2023-05-23T11:56:07;14.17;;;6.13;;
48935;SDS011;34745;52.276;10.528;2023-05-23T11:58:35;14.70;;;5.73;;
48935;SDS011;34745;52.276;10.528;2023-05-23T12:01:03;13.33;;;5.97;;
48935;SDS011;34745;52.276;10.528;2023-05-23T12:03:34;12.13;;;5.50;;
48935;SDS011;34745;52.276;10.528;2023-05-23T12:06:13;11.43;;;5.80;;
48935;SDS011;34745;52.276;10.528;2023-05-23T12:08:42;11.03;;;5.23;;
48935;SDS011;34745;52.276;10.528;2023-05-23T12:11:09;18.83;;;6.00;;
48935;SDS011;34745;52.276;10.528;2023-05-23T12:13:37;16.13;;;7.07;;
48935;SDS011;34745;52.276;10.528;2023-05-23T12:16:07;23.43;;;6.83;;
48935;SDS011;34745;52.276;10.528;2023-05-23T12:18:36;16.40;;;7.10;;
48935;SDS011;34745;52.276;10.528;2023-05-23T12:21:04;16.97;;;7.50;;
48935;SDS011;34745;52.276;10.528;2023-05-23T12:23:36;15.50;;;6.83;;
48935;SDS011;34745;52.276;10.528;2023-05-23T12:26:06;15.87;;;7.07;;
48935;SDS011;34745;52.276;10.528;2023-05-23T12:28:34;15.90;;;6.53;;
48935;SDS011;34745;52.276;10.528;2023-05-23T12:31:12;16.87;;;6.57;;
48935;SDS011;34745;52.276;10.528;2023-05-23T12:33:41;15.33;;;6.00;;
48935;SDS011;34745;52.276;10.528;2023-05-23T12:36:09;31.90;;;7.60;;
48935;SDS011;34745;52.276;10.528;2023-05-23T12:38:37;22.23;;;7.07;;
48935;SDS011;34745;52.276;10.528;2023-05-23T12:41:08;20.33;;;6.63;;
48935;SDS011;34745;52.276;10.528;2023-05-23T12:43:39;24.63;;;7.00;;
48935;SDS011;34745;52.276;10.528;2023-05-23T12:46:06;20.10;;;6.87;;
48935;SDS011;34745;52.276;10.528;2023-05-23T12:48:33;22.63;;;7.00;;
48935;SDS011;34745;52.276;10.528;2023-05-23T12:51:02;27.63;;;7.40;;
48935;SDS011;34745;52.276;10.528;2023-05-23T12:53:29;21.77;;;6.57;;
48935;SDS011;34745;52.276;10.528;2023-05-23T12:55:56;25.70;;;7.07;;
48935;SDS011;34745;52.276;10.528;2023-05-23T12:58:24;31.53;;;7.60;;
48935;SDS011;34745;52.276;10.528;2023-05-23T13:00:54;20.90;;;6.70;;
48935;SDS011;34745;52.276;10.528;2023-05-23T13:03:21;17.80;;;6.57;;
48935;SDS011;34745;52.276;10.528;2023-05-23T13:05:49;29.10;;;7.20;;
48935;SDS011;34745;52.276;10.528;2023-05-23T13:08:16;15.90;;;6.60;;
48935;SDS011;34745;52.276;10.528;2023-05-23T13:10:44;22.87;;;7.10;;
48935;SDS011;34745;52.276;10.528;2023-05-23T13:13:11;21.13;;;6.80;;
48935;SDS011;34745;52.276;10.528;2023-05-23T13:15:40;17.53;;;6.67;;
48935;SDS011;34745;52.276;10.528;2023-05-23T13:18:08;18.17;;;6.50;;
48935;SDS011;34745;52.276;10.528;2023-05-23T13:20:35;20.97;;;6.53;;
48935;SDS011;34745;52.276;10.528;2023-05-23T13:23:02;19.07;;;5.70;;
48935;SDS011;34745;52.276;10.528;2023-05-23T13:25:31;15.30;;;4.57;;
48935;SDS011;34745;52.276;10.528;2023-05-23T13:27:57;17.07;;;4.97;;
48935;SDS011;34745;52.276;10.528;2023-05-23T13:30:27;11.83;;;4.20;;
48935;SDS011;34745;52.276;10.528;2023-05-23T13:32:55;14.97;;;3.97;;
48935;SDS011;34745;52.276;10.528;2023-05-23T13:35:23;13.57;;;3.73;;
48935;SDS011;34745;52.276;10.528;2023-05-23T13:37:50;12.37;;;3.93;;
48935;SDS011;34745;52.276;10.528;2023-05-23T13:40:18;14.40;;;4.13;;
48935;SDS011;34745;52.276;10.528;2023-05-23T13:42:46;10.17;;;4.40;;
48935;SDS011;34745;52.276;10.528;2023-05-23T13:45:16;13.80;;;4.27;;
48935;SDS011;34745;52.276;10.528;2023-05-23T13:47:43;14.70;;;4.60;;
48935;SDS011;34745;52.276;10.528;2023-05-23T13:50:13;16.10;;;5.10;;
48935;SDS011;34745;52.276;10.528;2023-05-23T13:52:43;15.80;;;5.07;;
48935;SDS011;34745;52.276;10.528;2023-05-23T13:55:14;17.40;;;4.30;;
48935;SDS011;34745;52.276;10.528;2023-05-23T13:57:42;17.47;;;4.50;;
48935;SDS011;34745;52.276;10.528;2023-05-23T14:00:10;14.47;;;4.03;;
48935;SDS011;34745;52.276;10.528;2023-05-23T14:02:38;17.20;;;4.60;;
48935;SDS011;34745;52.276;10.528;2023-05-23T14:05:05;16.43;;;4.70;;
48935;SDS011;34745;52.276;10.528;2023-05-23T14:07:34;13.57;;;4.33;;
48935;SDS011;34745;52.276;10.528;2023-05-23T14:10:02;16.67;;;4.57;;
48935;SDS011;34745;52.276;10.528;2023-05-23T14:12:30;16.20;;;4.17;;
48935;SDS011;34745;52.276;10.528;2023-05-23T14:14:57;13.93;;;4.30;;
48935;SDS011;34745;52.276;10.528;2023-05-23T14:17:24;17.53;;;4.73;;
48935;SDS011;34745;52.276;10.528;2023-05-23T14:19:52;11.73;;;4.23;;
48935;SDS011;34745;52.276;10.528;2023-05-23T14:22:18;20.00;;;4.67;;
48935;SDS011;34745;52.276;10.528;2023-05-23T14:24:47;17.93;;;5.07;;